Airfield :







YOU CAN JOIN US ON...

 
LOGIN :

Register | Disclaimer

   EN    FR    IT 

 









Legend :    VFR   Marginal VFR   IFR   Intensive IFR   Very Intensive IFR
Visi :
Ceiling :
>= 8 km
>= 3000ft
5 to 8 km
1000 to 3000 ft
1500m to 5 km
500 to 1000 ft
800 to 1500m
200 to 500 ft
< 800m
< 200 ft
Symbols :   Thunderstorms  Fog  Heavy snow  Heavy precipitations  Wind > 20 kt






- Airport Elevation : 133 ft
- IATA code : BED


KBED - Laurence G Hanscom Field

CURRENT METAR :
  • 060551Z AUTO 00000KT 10SM FEW070 18/16 A3005 RMK AO2 SLP187 T01780156 10261 20178 51010

EXPIRED METARs :
  • 060451Z AUTO 00000KT 10SM SCT070 18/16 A3005 RMK AO2 SLP185 T01830156 403220183
  • 060351Z AUTO 00000KT 10SM BKN070 21/16 A3004 RMK AO2 SLP181 T02110161

TAF KBED
Valid from the 06 at 06:00 until the 07 at 06:00 UTC


060531Z 0606/0706 00000KT P6SM FEW070
FM061400 28003KT P6SM FEW250
FM070000 28003KT P6SM FEW200
FM070500 00000KT P6SM SCT200
KZBW FIR / North America



MET'MAP, your aeronautical weather chart ! - Copyright ORBIFLY December 2007 - Disclaimer

ORBIFLY MET'MAP TEAM :

Programming & Development : Alexandra Zaïnal
Concept & original design : Baudouin d'Aumeries
Assistance for programming : Marc-Olivier Méhu
Technical & hardware support : Manuel Goepfert

Contact : metmap@orbifly.com




SOURCES & CREDITS :

   NOAA